createdAt,value
2023-02-17T00:00:00.133Z,77.53
2023-02-17T00:02:29.614Z,77.59
2023-02-17T00:04:59.032Z,77.30
2023-02-17T00:07:36.179Z,77.54
2023-02-17T00:10:05.619Z,77.65
2023-02-17T00:12:34.844Z,77.25
2023-02-17T00:15:06.714Z,77.23
2023-02-17T00:17:36.018Z,77.29
2023-02-17T00:20:05.609Z,77.13
2023-02-17T00:22:40.679Z,77.33
2023-02-17T00:25:10.109Z,77.10
2023-02-17T00:27:39.275Z,76.82
2023-02-17T00:30:12.435Z,76.65
2023-02-17T00:32:47.725Z,77.11
2023-02-17T00:35:17.078Z,77.03
2023-02-17T00:37:46.498Z,77.04
2023-02-17T00:40:16.685Z,76.78
2023-02-17T00:42:51.050Z,76.94
2023-02-17T00:45:22.750Z,76.39
2023-02-17T00:47:52.101Z,76.68
2023-02-17T00:50:21.440Z,76.48
2023-02-17T00:52:50.525Z,76.33
2023-02-17T00:55:19.865Z,76.45
2023-02-17T00:57:51.916Z,76.32
2023-02-17T01:00:23.598Z,76.78
2023-02-17T01:02:57.508Z,76.58
2023-02-17T01:08:02.037Z,77.48
2023-02-17T01:10:31.125Z,77.38
2023-02-17T01:13:00.445Z,77.71
2023-02-17T01:15:32.553Z,77.76
2023-02-17T01:18:02.197Z,78.12
2023-02-17T01:20:31.316Z,78.10
2023-02-17T01:23:01.079Z,78.00
2023-02-17T01:25:32.101Z,78.31
2023-02-17T01:28:01.695Z,78.34
2023-02-17T01:30:32.813Z,78.29
2023-02-17T01:33:02.067Z,78.47
2023-02-17T01:35:31.211Z,78.49
2023-02-17T01:38:00.449Z,78.79
2023-02-17T01:40:30.096Z,78.77
2023-02-17T01:42:59.651Z,78.96
2023-02-17T01:45:48.342Z,79.79
2023-02-17T01:48:20.825Z,79.86
2023-02-17T01:50:56.283Z,81.07
2023-02-17T01:53:31.126Z,81.86
2023-02-17T01:56:00.479Z,82.34
2023-02-17T01:58:31.831Z,83.38
2023-02-17T02:01:06.574Z,83.23
2023-02-17T02:03:40.004Z,83.93
2023-02-17T02:06:13.838Z,84.02
2023-02-17T02:08:53.001Z,83.25
2023-02-17T02:11:22.932Z,82.13
2023-02-17T02:13:54.369Z,83.03
2023-02-17T02:16:35.779Z,82.87
2023-02-17T02:19:23.111Z,83.43
2023-02-17T02:22:46.038Z,84.32
2023-02-17T02:25:34.983Z,85.17
2023-02-17T02:28:23.514Z,85.70
2023-02-17T02:31:27.433Z,86.67
2023-02-17T02:36:48.926Z,88.08
2023-02-17T02:39:20.335Z,88.76
2023-02-17T02:41:52.100Z,88.77
2023-02-17T02:44:23.039Z,87.66
2023-02-17T02:46:59.223Z,88.10
2023-02-17T02:49:34.520Z,87.81
2023-02-17T02:52:14.593Z,88.50
2023-02-17T02:54:52.801Z,88.51
2023-02-17T02:57:36.616Z,87.89
2023-02-17T03:00:17.156Z,88.09
2023-02-17T03:02:53.307Z,88.44
2023-02-17T03:05:38.847Z,89.21
2023-02-17T03:08:13.098Z,87.98
2023-02-17T03:10:49.044Z,88.38
2023-02-17T03:13:18.855Z,87.96
2023-02-17T03:15:48.782Z,88.46
2023-02-17T03:18:18.380Z,87.61
2023-02-17T03:20:54.768Z,87.43
2023-02-17T03:23:29.117Z,87.14
2023-02-17T03:25:58.570Z,87.73
2023-02-17T03:28:27.835Z,88.47
2023-02-17T03:30:57.253Z,88.58
2023-02-17T03:33:26.602Z,87.97
2023-02-17T03:36:02.846Z,88.71
2023-02-17T03:38:32.841Z,88.05
2023-02-17T03:41:01.887Z,88.18
2023-02-17T03:43:36.319Z,87.90
2023-02-17T03:46:06.079Z,87.81
2023-02-17T03:48:35.768Z,87.86
2023-02-17T03:51:15.085Z,88.17
2023-02-17T03:53:45.159Z,87.99
2023-02-17T03:56:15.595Z,88.02
2023-02-17T03:58:45.171Z,87.72
2023-02-17T04:01:15.307Z,88.24
2023-02-17T04:06:22.128Z,88.16
2023-02-17T04:08:51.495Z,87.98
2023-02-17T04:11:20.750Z,88.50
2023-02-17T04:13:50.415Z,88.18
2023-02-17T04:16:19.463Z,88.62
2023-02-17T04:18:48.728Z,88.84
2023-02-17T04:21:31.671Z,88.87
2023-02-17T04:24:02.882Z,87.40
2023-02-17T04:26:41.550Z,88.48
2023-02-17T04:29:10.770Z,87.83
2023-02-17T04:31:45.041Z,87.79
2023-02-17T04:34:14.200Z,87.24
2023-02-17T04:36:45.392Z,87.11
2023-02-17T04:39:19.810Z,87.13
2023-02-17T04:41:49.220Z,86.93
2023-02-17T04:44:18.283Z,87.37
2023-02-17T04:46:47.448Z,87.35
2023-02-17T04:49:16.691Z,86.94
2023-02-17T04:51:47.854Z,87.32
2023-02-17T04:54:17.124Z,87.91
2023-02-17T04:56:46.176Z,88.05
2023-02-17T04:59:15.326Z,88.04
2023-02-17T05:01:49.581Z,87.78
2023-02-17T05:04:18.796Z,87.42
2023-02-17T05:06:54.870Z,86.93
2023-02-17T05:09:34.210Z,86.28
2023-02-17T05:12:10.165Z,85.66
2023-02-17T05:14:40.127Z,85.96
2023-02-17T05:17:09.331Z,86.76
2023-02-17T05:19:43.490Z,86.23
2023-02-17T05:22:14.762Z,86.34
2023-02-17T05:24:44.502Z,86.41
2023-02-17T05:27:13.742Z,86.02
2023-02-17T05:29:48.285Z,85.86
2023-02-17T05:32:17.679Z,86.40
2023-02-17T05:34:47.006Z,86.73
2023-02-17T05:37:23.396Z,87.32
2023-02-17T05:39:52.739Z,87.18
2023-02-17T05:42:21.897Z,86.75
2023-02-17T05:47:35.079Z,86.65
2023-02-17T05:50:04.593Z,86.97
2023-02-17T05:52:36.072Z,86.47
2023-02-17T05:55:05.558Z,86.36
2023-02-17T05:57:35.087Z,86.38
2023-02-17T06:00:05.600Z,86.36
2023-02-17T06:02:41.884Z,86.33
2023-02-17T06:05:11.724Z,86.39
2023-02-17T06:07:42.841Z,86.64
2023-02-17T06:10:13.069Z,86.34
2023-02-17T06:12:42.389Z,86.34
2023-02-17T06:17:51.832Z,86.45
2023-02-17T06:20:23.183Z,86.28
2023-02-17T06:22:59.609Z,85.81
2023-02-17T06:25:28.903Z,86.13
2023-02-17T06:27:58.040Z,86.08
2023-02-17T06:30:35.073Z,85.45
2023-02-17T06:33:04.199Z,85.09
2023-02-17T06:35:33.442Z,84.90
2023-02-17T06:38:04.682Z,84.35
2023-02-17T06:40:33.887Z,84.42
2023-02-17T06:43:03.061Z,83.89
2023-02-17T06:45:32.399Z,83.52
2023-02-17T06:48:01.605Z,82.91
2023-02-17T06:50:30.970Z,81.50
2023-02-17T06:53:07.575Z,81.66
2023-02-17T06:55:38.602Z,81.29
2023-02-17T07:00:42.791Z,79.79
2023-02-17T07:03:12.094Z,79.73
2023-02-17T07:05:46.392Z,79.98
2023-02-17T07:08:17.449Z,78.96
2023-02-17T07:10:51.620Z,77.83
2023-02-17T07:13:20.716Z,78.10
2023-02-17T07:15:49.893Z,77.70
2023-02-17T07:18:19.021Z,77.69
2023-02-17T07:20:48.326Z,78.01
2023-02-17T07:23:20.084Z,77.99
2023-02-17T07:25:49.258Z,78.31
2023-02-17T07:28:18.680Z,77.98
2023-02-17T07:30:48.048Z,77.08
2023-02-17T07:33:17.124Z,76.10
2023-02-17T07:35:46.559Z,75.81
2023-02-17T07:38:15.702Z,75.07
2023-02-17T07:40:46.772Z,74.47
2023-02-17T07:43:21.035Z,73.85
2023-02-17T07:45:58.956Z,71.99
2023-02-17T07:48:28.977Z,71.91
2023-02-17T07:50:58.444Z,71.47
2023-02-17T07:53:32.857Z,72.33
2023-02-17T07:56:04.628Z,70.14
2023-02-17T07:58:34.694Z,70.79
2023-02-17T08:01:08.091Z,69.64
2023-02-17T08:03:37.572Z,70.24
2023-02-17T08:06:10.692Z,69.42
2023-02-17T08:08:53.327Z,67.98
2023-02-17T08:11:44.110Z,69.02
2023-02-17T08:14:27.111Z,68.80
2023-02-17T08:16:56.962Z,68.56
2023-02-17T08:19:39.781Z,68.27
2023-02-17T08:22:22.291Z,66.01
2023-02-17T08:24:51.660Z,66.42
2023-02-17T08:27:22.914Z,66.49
2023-02-17T08:29:57.459Z,66.04
2023-02-17T08:32:26.653Z,66.54
2023-02-17T08:34:58.509Z,67.19
2023-02-17T08:37:29.843Z,67.59
2023-02-17T08:39:59.224Z,66.49
2023-02-17T08:42:30.666Z,65.80
2023-02-17T08:45:00.013Z,66.44
2023-02-17T08:47:29.238Z,65.16
2023-02-17T08:50:04.291Z,65.51
2023-02-17T08:52:33.631Z,65.75
2023-02-17T08:55:13.604Z,65.83
2023-02-17T08:57:45.311Z,65.45
2023-02-17T09:00:15.809Z,64.75
2023-02-17T09:02:46.669Z,64.49
2023-02-17T09:05:21.271Z,65.35
2023-02-17T09:07:50.325Z,64.81
2023-02-17T09:10:30.349Z,64.40
2023-02-17T09:13:01.605Z,65.40
2023-02-17T09:15:30.996Z,65.02
2023-02-17T09:18:00.125Z,65.18
2023-02-17T09:20:29.522Z,65.46
2023-02-17T09:22:58.807Z,64.87
2023-02-17T09:25:34.776Z,65.37
2023-02-17T09:28:06.375Z,65.84
2023-02-17T09:30:36.189Z,65.81
2023-02-17T09:33:05.608Z,65.86
2023-02-17T09:35:40.606Z,65.95
2023-02-17T09:38:09.979Z,65.99
2023-02-17T09:40:51.948Z,65.85
2023-02-17T09:43:30.703Z,65.52
2023-02-17T09:46:04.373Z,65.66
2023-02-17T09:48:35.854Z,65.94
2023-02-17T09:51:19.191Z,65.37
2023-02-17T09:53:53.702Z,64.93
2023-02-17T09:56:27.340Z,64.39
2023-02-17T09:59:04.022Z,64.58
2023-02-17T10:01:35.650Z,64.30
2023-02-17T10:04:10.474Z,64.38
2023-02-17T10:06:41.805Z,65.15
2023-02-17T10:09:18.173Z,64.66
2023-02-17T10:11:58.396Z,64.46
2023-02-17T10:14:33.411Z,62.96
2023-02-17T10:17:11.104Z,62.73
2023-02-17T10:19:49.679Z,62.34
2023-02-17T10:22:22.166Z,62.70
2023-02-17T10:24:52.176Z,63.33
2023-02-17T10:27:37.707Z,61.71
2023-02-17T10:30:22.406Z,61.18
2023-02-17T10:33:02.689Z,61.09
2023-02-17T10:35:50.271Z,61.35
2023-02-17T10:38:40.053Z,61.49
2023-02-17T10:41:15.474Z,61.36
2023-02-17T10:43:56.532Z,60.38
2023-02-17T10:46:34.416Z,61.11
2023-02-17T10:49:06.254Z,61.53
2023-02-17T10:51:36.659Z,61.98
2023-02-17T10:56:52.904Z,61.81
2023-02-17T10:59:26.081Z,61.77
2023-02-17T11:02:00.919Z,61.53
2023-02-17T11:07:12.126Z,61.70
2023-02-17T11:09:47.118Z,62.10
2023-02-17T11:12:18.627Z,61.79
2023-02-17T11:14:50.419Z,62.26
2023-02-17T11:17:25.491Z,61.34
2023-02-17T11:20:04.207Z,61.53
2023-02-17T11:22:38.234Z,62.13
2023-02-17T11:25:21.395Z,62.06
2023-02-17T11:27:54.512Z,62.30
2023-02-17T11:33:17.350Z,62.41
2023-02-17T11:35:51.885Z,62.66
2023-02-17T11:38:43.054Z,62.30
2023-02-17T11:41:12.752Z,62.84
2023-02-17T11:43:52.659Z,63.82
2023-02-17T11:46:37.337Z,63.63
2023-02-17T11:49:41.568Z,63.67
2023-02-17T11:52:29.982Z,63.42
2023-02-17T11:55:15.016Z,63.36
2023-02-17T11:57:47.493Z,62.91
2023-02-17T12:00:22.164Z,62.91
2023-02-17T12:03:22.845Z,62.38
2023-02-17T12:06:09.793Z,62.49
2023-02-17T12:08:51.903Z,62.58
2023-02-17T12:11:27.979Z,63.28
2023-02-17T12:14:08.968Z,62.97
2023-02-17T12:16:48.335Z,62.83
2023-02-17T12:19:42.439Z,62.50
2023-02-17T12:22:20.465Z,62.62
2023-02-17T12:25:17.146Z,63.78
2023-02-17T12:27:57.163Z,63.84
2023-02-17T12:30:53.026Z,64.02
2023-02-17T12:33:50.256Z,63.79
2023-02-17T12:36:21.397Z,64.04
2023-02-17T12:38:59.114Z,63.91
2023-02-17T12:44:17.475Z,65.48
2023-02-17T12:53:36.143Z,65.63
2023-02-17T12:56:16.569Z,66.32
2023-02-17T12:58:46.122Z,66.75
2023-02-17T13:01:19.428Z,67.43
2023-02-17T13:03:49.571Z,68.05
2023-02-17T13:06:32.375Z,68.92
2023-02-17T13:09:15.119Z,68.70
2023-02-17T13:11:46.355Z,68.55
2023-02-17T13:14:28.039Z,69.46
2023-02-17T13:16:57.648Z,68.81
2023-02-17T13:19:30.606Z,68.60
2023-02-17T13:22:01.915Z,68.80
2023-02-17T13:24:38.110Z,68.67
2023-02-17T13:27:22.302Z,69.07
2023-02-17T13:30:02.436Z,69.08
2023-02-17T13:32:36.074Z,68.99
2023-02-17T13:35:31.606Z,68.93
2023-02-17T13:38:01.176Z,68.73
2023-02-17T13:40:39.595Z,68.84
2023-02-17T13:43:19.489Z,68.18
2023-02-17T13:45:54.746Z,68.40
2023-02-17T13:48:29.419Z,68.50
2023-02-17T13:51:05.997Z,68.67
2023-02-17T13:53:38.222Z,68.59
2023-02-17T13:56:32.497Z,68.87
2023-02-17T13:59:10.114Z,69.14
2023-02-17T14:01:43.563Z,69.15
2023-02-17T14:04:23.239Z,69.46
2023-02-17T14:07:01.032Z,69.43
2023-02-17T14:09:32.634Z,70.39
2023-02-17T14:14:51.009Z,71.74
2023-02-17T14:17:32.447Z,71.77
2023-02-17T14:20:02.538Z,71.73
2023-02-17T14:22:34.606Z,72.15
2023-02-17T14:25:06.700Z,71.87
2023-02-17T14:27:46.272Z,72.46
2023-02-17T14:30:31.183Z,73.10
2023-02-17T14:35:53.446Z,73.59
2023-02-17T14:38:24.638Z,73.30
2023-02-17T14:40:55.459Z,74.74
2023-02-17T14:43:27.079Z,75.02
2023-02-17T14:46:01.517Z,75.11
2023-02-17T14:48:30.716Z,75.62
2023-02-17T14:51:08.090Z,76.87
2023-02-17T14:53:40.101Z,76.32
2023-02-17T14:56:12.411Z,76.62
2023-02-17T14:58:49.027Z,77.32
2023-02-17T15:01:25.310Z,77.44
2023-02-17T15:03:55.616Z,77.76
2023-02-17T15:06:30.789Z,78.25
2023-02-17T15:09:02.960Z,78.35
2023-02-17T15:11:38.062Z,78.46
2023-02-17T15:14:09.106Z,79.23
2023-02-17T15:16:38.310Z,79.36
2023-02-17T15:19:07.423Z,79.82
2023-02-17T15:21:38.603Z,79.55
2023-02-17T15:24:16.604Z,80.58
2023-02-17T15:26:45.879Z,80.40
2023-02-17T15:29:20.355Z,80.83
2023-02-17T15:31:51.215Z,80.94
2023-02-17T15:34:22.729Z,80.81
2023-02-17T15:36:57.250Z,81.16
2023-02-17T15:39:26.847Z,81.05
2023-02-17T15:44:42.961Z,82.39
2023-02-17T15:47:18.085Z,81.71
2023-02-17T15:49:47.581Z,82.06
2023-02-17T15:52:16.966Z,82.09
2023-02-17T15:54:51.388Z,81.90
2023-02-17T15:57:24.445Z,81.35
2023-02-17T15:59:57.286Z,81.26
2023-02-17T16:02:27.304Z,81.56
2023-02-17T16:05:07.470Z,81.79
2023-02-17T16:07:38.390Z,81.71
2023-02-17T16:10:14.635Z,81.91
2023-02-17T16:12:44.625Z,81.95
2023-02-17T16:15:17.936Z,82.31
2023-02-17T16:17:47.830Z,82.38
2023-02-17T16:20:19.119Z,82.68
2023-02-17T16:22:53.666Z,82.24
2023-02-17T16:25:29.182Z,83.21
2023-02-17T16:27:59.078Z,83.31
2023-02-17T16:30:34.496Z,83.70
2023-02-17T16:33:04.548Z,83.21
2023-02-17T16:35:34.958Z,83.67
2023-02-17T16:38:07.244Z,84.33
2023-02-17T16:40:38.719Z,84.14
2023-02-17T16:43:13.617Z,83.83
2023-02-17T16:45:57.099Z,84.76
2023-02-17T16:48:28.561Z,84.59
2023-02-17T16:51:08.211Z,85.03
2023-02-17T16:53:37.458Z,85.09
2023-02-17T16:56:16.819Z,85.64
2023-02-17T16:58:46.524Z,85.61
2023-02-17T17:01:17.873Z,85.12
2023-02-17T17:03:47.202Z,85.48
2023-02-17T17:06:22.360Z,85.78
2023-02-17T17:08:52.303Z,85.42
2023-02-17T17:11:23.983Z,85.89
2023-02-17T17:13:53.876Z,86.11
2023-02-17T17:16:34.481Z,86.40
2023-02-17T17:19:04.911Z,86.29
2023-02-17T17:21:34.026Z,86.28
2023-02-17T17:24:03.206Z,87.51
2023-02-17T17:26:36.008Z,87.74
2023-02-17T17:29:11.782Z,87.76
2023-02-17T17:31:43.399Z,87.74
2023-02-17T17:34:12.914Z,87.21
2023-02-17T17:36:44.597Z,87.90
2023-02-17T17:39:16.599Z,90.06
2023-02-17T17:41:46.510Z,87.36
2023-02-17T17:44:15.883Z,87.23
2023-02-17T17:46:47.407Z,87.35
2023-02-17T17:49:18.049Z,87.16
2023-02-17T17:51:52.476Z,86.93
2023-02-17T17:54:21.973Z,87.32
2023-02-17T17:56:51.208Z,87.80
2023-02-17T17:59:20.373Z,87.47
2023-02-17T18:01:51.416Z,87.96
2023-02-17T18:04:20.613Z,88.09
2023-02-17T18:06:51.942Z,87.85
2023-02-17T18:09:31.676Z,88.91
2023-02-17T18:12:04.474Z,88.36
2023-02-17T18:14:37.205Z,88.35
2023-02-17T18:17:11.668Z,88.49
2023-02-17T18:19:42.172Z,88.46
2023-02-17T18:22:11.386Z,89.32
2023-02-17T18:24:40.931Z,88.84
2023-02-17T18:27:10.142Z,88.77
2023-02-17T18:29:39.539Z,89.02
2023-02-17T18:32:15.994Z,89.57
2023-02-17T18:34:45.142Z,89.38
2023-02-17T18:37:19.929Z,89.19
2023-02-17T18:39:49.214Z,90.22
2023-02-17T18:42:18.432Z,89.63
2023-02-17T18:44:52.654Z,89.94
2023-02-17T18:47:23.784Z,89.79
2023-02-17T18:49:53.240Z,90.17
2023-02-17T18:52:22.612Z,90.46
2023-02-17T18:54:52.417Z,90.12
2023-02-17T18:57:21.736Z,90.25
2023-02-17T18:59:51.021Z,90.69
2023-02-17T19:02:21.495Z,90.82
2023-02-17T19:04:58.212Z,91.02
2023-02-17T19:07:27.497Z,90.56
2023-02-17T19:09:56.567Z,91.65
2023-02-17T19:12:28.441Z,91.44
2023-02-17T19:14:57.311Z,91.86
2023-02-17T19:17:26.998Z,90.35
2023-02-17T19:22:32.836Z,90.54
2023-02-17T19:25:02.434Z,90.29
2023-02-17T19:27:32.531Z,90.26
2023-02-17T19:30:01.826Z,90.48
2023-02-17T19:32:33.115Z,91.64
2023-02-17T19:35:04.578Z,91.04
2023-02-17T19:37:38.803Z,91.18
2023-02-17T19:40:10.452Z,90.81
2023-02-17T19:45:14.706Z,91.76
2023-02-17T19:47:45.734Z,91.50
2023-02-17T19:50:17.788Z,91.89
2023-02-17T19:52:47.428Z,91.72
2023-02-17T19:55:16.742Z,91.74
2023-02-17T19:57:46.213Z,92.06
2023-02-17T20:00:16.339Z,91.31
2023-02-17T20:02:45.486Z,91.94
2023-02-17T20:05:16.558Z,92.01
2023-02-17T20:07:45.736Z,92.46
2023-02-17T20:10:15.277Z,91.77
2023-02-17T20:12:44.791Z,91.79
2023-02-17T20:15:13.977Z,91.57
2023-02-17T20:17:44.111Z,91.77
2023-02-17T20:20:18.879Z,91.35
2023-02-17T20:22:50.134Z,91.63
2023-02-17T20:25:19.448Z,91.96
2023-02-17T20:27:49.308Z,91.78
2023-02-17T20:30:18.928Z,91.80
2023-02-17T20:32:48.168Z,91.84
2023-02-17T20:35:17.846Z,91.76
2023-02-17T20:37:47.338Z,91.54
2023-02-17T20:42:53.765Z,91.90
2023-02-17T20:45:22.972Z,91.98
2023-02-17T20:47:52.238Z,91.82
2023-02-17T20:50:23.210Z,91.70
2023-02-17T20:52:56.200Z,92.04
2023-02-17T20:55:27.746Z,91.95
2023-02-17T20:58:08.998Z,91.68
2023-02-17T21:00:38.475Z,91.79
2023-02-17T21:03:07.958Z,91.75
2023-02-17T21:05:38.791Z,92.00
2023-02-17T21:08:08.033Z,91.78
2023-02-17T21:10:45.493Z,92.01
2023-02-17T21:13:14.767Z,91.92
2023-02-17T21:15:43.901Z,91.47
2023-02-17T21:18:13.921Z,91.64
2023-02-17T21:20:43.108Z,91.52
2023-02-17T21:23:17.390Z,91.51
2023-02-17T21:25:49.156Z,91.21
2023-02-17T21:28:18.379Z,91.30
2023-02-17T21:30:48.449Z,91.11
2023-02-17T21:33:17.650Z,91.35
2023-02-17T21:35:46.703Z,91.74
2023-02-17T21:38:22.547Z,92.07
2023-02-17T21:40:53.953Z,91.79
2023-02-17T21:43:36.141Z,91.69
2023-02-17T21:46:12.429Z,92.24
2023-02-17T21:48:41.653Z,91.96
2023-02-17T21:51:13.672Z,92.44
2023-02-17T21:53:43.164Z,92.05
2023-02-17T21:56:14.413Z,92.18
2023-02-17T21:58:48.023Z,92.58
2023-02-17T22:01:23.373Z,92.14
2023-02-17T22:03:52.781Z,91.96
2023-02-17T22:06:24.871Z,92.89
2023-02-17T22:08:54.521Z,92.39
2023-02-17T22:11:28.590Z,92.38
2023-02-17T22:13:59.235Z,91.97
2023-02-17T22:16:30.603Z,92.37
2023-02-17T22:19:00.898Z,92.57
2023-02-17T22:21:35.405Z,92.71
2023-02-17T22:24:09.122Z,92.66
2023-02-17T22:26:40.435Z,92.41
2023-02-17T22:29:09.928Z,92.47
2023-02-17T22:31:39.145Z,92.59
2023-02-17T22:34:15.606Z,92.84
2023-02-17T22:36:44.742Z,92.69
2023-02-17T22:39:13.950Z,92.53
2023-02-17T22:41:45.119Z,92.57
2023-02-17T22:44:14.346Z,92.50
2023-02-17T22:46:43.804Z,92.89
2023-02-17T22:49:13.006Z,93.12
2023-02-17T22:51:42.387Z,92.61
2023-02-17T22:54:12.015Z,92.48
2023-02-17T22:56:41.225Z,93.00
2023-02-17T22:59:12.324Z,92.70
2023-02-17T23:01:41.854Z,92.71
2023-02-17T23:04:19.839Z,92.56
2023-02-17T23:06:49.040Z,92.72
2023-02-17T23:09:20.153Z,92.98
2023-02-17T23:11:53.489Z,92.62
2023-02-17T23:14:27.578Z,92.63
2023-02-17T23:16:59.859Z,93.25
2023-02-17T23:19:30.352Z,93.05
2023-02-17T23:22:08.657Z,92.86
2023-02-17T23:24:37.900Z,93.00
2023-02-17T23:27:12.109Z,92.92
2023-02-17T23:29:43.894Z,93.34
2023-02-17T23:32:12.644Z,93.88
2023-02-17T23:34:41.677Z,93.59
2023-02-17T23:37:10.403Z,93.76
2023-02-17T23:39:39.556Z,93.86
2023-02-17T23:42:08.364Z,93.74
2023-02-17T23:44:37.038Z,93.56
2023-02-17T23:47:12.893Z,93.67
2023-02-17T23:49:41.682Z,93.34
2023-02-17T23:52:11.659Z,93.25
2023-02-17T23:54:45.422Z,93.14
2023-02-17T23:57:14.203Z,92.67
2023-02-17T23:59:43.136Z,92.69
